sensor_id;sensor_type;location;lat;lon;timestamp;pressure;altitude;pressure_sealevel;temperature;humidity
10921;BME280;5513;50.580;8.818;2023-10-31T00:00:34;97517.13;;;12.83;100.00
10921;BME280;5513;50.580;8.818;2023-10-31T00:03:21;97513.63;;;12.83;100.00
10921;BME280;5513;50.580;8.818;2023-10-31T00:06:08;97515.19;;;12.85;100.00
10921;BME280;5513;50.580;8.818;2023-10-31T00:08:55;97514.34;;;12.85;100.00
10921;BME280;5513;50.580;8.818;2023-10-31T00:11:42;97500.25;;;12.93;100.00
10921;BME280;5513;50.580;8.818;2023-10-31T00:14:29;97482.38;;;12.95;100.00
10921;BME280;5513;50.580;8.818;2023-10-31T00:17:18;97486.38;;;12.99;100.00
10921;BME280;5513;50.580;8.818;2023-10-31T00:20:06;97486.75;;;13.04;100.00
10921;BME280;5513;50.580;8.818;2023-10-31T00:22:53;97477.56;;;12.98;100.00
10921;BME280;5513;50.580;8.818;2023-10-31T00:25:40;97476.81;;;12.88;100.00
10921;BME280;5513;50.580;8.818;2023-10-31T00:28:26;97481.97;;;12.89;100.00
10921;BME280;5513;50.580;8.818;2023-10-31T00:31:13;97463.38;;;12.89;100.00
10921;BME280;5513;50.580;8.818;2023-10-31T00:34:02;97457.41;;;12.87;100.00
10921;BME280;5513;50.580;8.818;2023-10-31T00:36:49;97455.88;;;12.85;100.00
10921;BME280;5513;50.580;8.818;2023-10-31T00:39:36;97465.53;;;12.86;100.00
10921;BME280;5513;50.580;8.818;2023-10-31T00:42:23;97456.00;;;12.83;100.00
10921;BME280;5513;50.580;8.818;2023-10-31T00:45:10;97448.91;;;12.84;100.00
10921;BME280;5513;50.580;8.818;2023-10-31T00:47:57;97444.38;;;12.76;100.00
10921;BME280;5513;50.580;8.818;2023-10-31T00:50:46;97444.03;;;12.79;100.00
10921;BME280;5513;50.580;8.818;2023-10-31T00:53:33;97435.72;;;12.74;100.00
10921;BME280;5513;50.580;8.818;2023-10-31T00:56:20;97452.41;;;12.84;100.00
10921;BME280;5513;50.580;8.818;2023-10-31T00:59:07;97438.41;;;12.82;100.00
10921;BME280;5513;50.580;8.818;2023-10-31T01:01:54;97436.06;;;12.79;100.00
10921;BME280;5513;50.580;8.818;2023-10-31T01:04:41;97430.91;;;12.78;100.00
10921;BME280;5513;50.580;8.818;2023-10-31T01:07:29;97427.44;;;12.77;100.00
10921;BME280;5513;50.580;8.818;2023-10-31T01:10:16;97430.84;;;12.70;100.00
10921;BME280;5513;50.580;8.818;2023-10-31T01:13:03;97424.19;;;12.66;100.00
10921;BME280;5513;50.580;8.818;2023-10-31T01:15:50;97417.16;;;12.56;100.00
10921;BME280;5513;50.580;8.818;2023-10-31T01:18:36;97416.31;;;12.56;100.00
10921;BME280;5513;50.580;8.818;2023-10-31T01:21:23;97412.19;;;12.44;100.00
10921;BME280;5513;50.580;8.818;2023-10-31T01:24:12;97415.34;;;12.39;100.00
10921;BME280;5513;50.580;8.818;2023-10-31T01:26:58;97409.25;;;12.29;100.00
10921;BME280;5513;50.580;8.818;2023-10-31T01:29:46;97416.69;;;12.25;100.00
10921;BME280;5513;50.580;8.818;2023-10-31T01:32:32;97417.97;;;12.21;100.00
10921;BME280;5513;50.580;8.818;2023-10-31T01:35:19;97417.31;;;12.19;100.00
10921;BME280;5513;50.580;8.818;2023-10-31T01:38:06;97429.28;;;12.23;100.00
10921;BME280;5513;50.580;8.818;2023-10-31T01:40:54;97430.81;;;12.26;100.00
10921;BME280;5513;50.580;8.818;2023-10-31T01:43:41;97422.00;;;12.25;100.00
10921;BME280;5513;50.580;8.818;2023-10-31T01:46:28;97424.19;;;12.30;100.00
10921;BME280;5513;50.580;8.818;2023-10-31T01:49:15;97416.09;;;12.31;100.00
10921;BME280;5513;50.580;8.818;2023-10-31T01:52:03;97410.63;;;12.33;100.00
10921;BME280;5513;50.580;8.818;2023-10-31T01:54:51;97416.00;;;12.41;100.00
10921;BME280;5513;50.580;8.818;2023-10-31T01:57:39;97412.22;;;12.26;100.00
10921;BME280;5513;50.580;8.818;2023-10-31T02:00:27;97417.59;;;12.34;100.00
10921;BME280;5513;50.580;8.818;2023-10-31T02:03:14;97404.94;;;12.28;100.00
10921;BME280;5513;50.580;8.818;2023-10-31T02:06:01;97401.47;;;12.27;100.00
10921;BME280;5513;50.580;8.818;2023-10-31T02:08:48;97413.44;;;12.31;100.00
10921;BME280;5513;50.580;8.818;2023-10-31T02:11:34;97411.09;;;12.28;100.00
10921;BME280;5513;50.580;8.818;2023-10-31T02:14:23;97405.47;;;12.31;100.00
10921;BME280;5513;50.580;8.818;2023-10-31T02:17:10;97410.25;;;12.28;100.00
10921;BME280;5513;50.580;8.818;2023-10-31T02:19:57;97413.34;;;12.23;100.00
10921;BME280;5513;50.580;8.818;2023-10-31T02:22:45;97416.41;;;12.28;100.00
10921;BME280;5513;50.580;8.818;2023-10-31T02:25:33;97413.28;;;12.33;100.00
10921;BME280;5513;50.580;8.818;2023-10-31T02:28:20;97420.41;;;12.32;100.00
10921;BME280;5513;50.580;8.818;2023-10-31T02:31:07;97413.59;;;12.30;100.00
10921;BME280;5513;50.580;8.818;2023-10-31T02:33:54;97412.50;;;12.23;100.00
10921;BME280;5513;50.580;8.818;2023-10-31T02:36:41;97425.03;;;12.13;100.00
10921;BME280;5513;50.580;8.818;2023-10-31T02:39:29;97420.94;;;12.18;100.00
10921;BME280;5513;50.580;8.818;2023-10-31T02:42:16;97415.16;;;12.05;100.00
10921;BME280;5513;50.580;8.818;2023-10-31T02:45:03;97413.22;;;12.07;100.00
10921;BME280;5513;50.580;8.818;2023-10-31T02:47:50;97409.50;;;12.18;100.00
10921;BME280;5513;50.580;8.818;2023-10-31T02:50:37;97413.41;;;12.14;100.00
10921;BME280;5513;50.580;8.818;2023-10-31T02:53:26;97412.16;;;12.18;100.00
10921;BME280;5513;50.580;8.818;2023-10-31T02:56:14;97406.84;;;12.18;100.00
10921;BME280;5513;50.580;8.818;2023-10-31T02:59:00;97418.22;;;12.10;100.00
10921;BME280;5513;50.580;8.818;2023-10-31T03:01:47;97427.59;;;12.04;100.00
10921;BME280;5513;50.580;8.818;2023-10-31T03:04:34;97430.94;;;12.07;100.00
10921;BME280;5513;50.580;8.818;2023-10-31T03:07:21;97439.88;;;12.06;100.00
10921;BME280;5513;50.580;8.818;2023-10-31T03:10:09;97440.63;;;11.98;100.00
10921;BME280;5513;50.580;8.818;2023-10-31T03:12:57;97452.91;;;11.99;100.00
10921;BME280;5513;50.580;8.818;2023-10-31T03:15:45;97463.13;;;11.94;100.00
10921;BME280;5513;50.580;8.818;2023-10-31T03:18:32;97463.59;;;11.89;100.00
10921;BME280;5513;50.580;8.818;2023-10-31T03:21:19;97465.41;;;11.89;100.00
10921;BME280;5513;50.580;8.818;2023-10-31T03:24:06;97461.50;;;11.83;100.00
10921;BME280;5513;50.580;8.818;2023-10-31T03:26:53;97460.69;;;11.83;100.00
10921;BME280;5513;50.580;8.818;2023-10-31T03:29:42;97467.25;;;11.79;100.00
10921;BME280;5513;50.580;8.818;2023-10-31T03:32:29;97468.06;;;11.79;100.00
10921;BME280;5513;50.580;8.818;2023-10-31T03:35:16;97482.66;;;11.65;100.00
10921;BME280;5513;50.580;8.818;2023-10-31T03:38:03;97484.31;;;11.66;100.00
10921;BME280;5513;50.580;8.818;2023-10-31T03:40:49;97485.28;;;11.65;100.00
10921;BME280;5513;50.580;8.818;2023-10-31T03:43:36;97504.47;;;11.59;100.00
10921;BME280;5513;50.580;8.818;2023-10-31T03:46:25;97512.00;;;11.54;100.00
10921;BME280;5513;50.580;8.818;2023-10-31T03:49:12;97506.31;;;11.49;100.00
10921;BME280;5513;50.580;8.818;2023-10-31T03:51:59;97504.59;;;11.48;100.00
10921;BME280;5513;50.580;8.818;2023-10-31T03:54:46;97507.28;;;11.38;100.00
10921;BME280;5513;50.580;8.818;2023-10-31T03:57:33;97515.69;;;11.34;100.00
10921;BME280;5513;50.580;8.818;2023-10-31T04:00:20;97516.97;;;11.30;100.00
10921;BME280;5513;50.580;8.818;2023-10-31T04:03:08;97532.88;;;11.30;100.00
10921;BME280;5513;50.580;8.818;2023-10-31T04:05:55;97549.47;;;11.22;100.00
10921;BME280;5513;50.580;8.818;2023-10-31T04:08:41;97551.44;;;11.20;100.00
10921;BME280;5513;50.580;8.818;2023-10-31T04:11:28;97552.38;;;11.19;100.00
10921;BME280;5513;50.580;8.818;2023-10-31T04:14:15;97558.66;;;11.28;100.00
10921;BME280;5513;50.580;8.818;2023-10-31T04:17:03;97560.31;;;11.29;100.00
10921;BME280;5513;50.580;8.818;2023-10-31T04:19:52;97557.81;;;11.37;100.00
10921;BME280;5513;50.580;8.818;2023-10-31T04:22:38;97556.31;;;11.15;100.00
10921;BME280;5513;50.580;8.818;2023-10-31T04:25:25;97563.56;;;11.23;100.00
10921;BME280;5513;50.580;8.818;2023-10-31T04:28:14;97566.59;;;11.28;100.00
10921;BME280;5513;50.580;8.818;2023-10-31T04:31:01;97559.25;;;11.22;100.00
10921;BME280;5513;50.580;8.818;2023-10-31T04:33:49;97562.44;;;11.15;100.00
10921;BME280;5513;50.580;8.818;2023-10-31T04:36:37;97560.63;;;11.26;100.00
10921;BME280;5513;50.580;8.818;2023-10-31T04:39:24;97564.41;;;11.23;100.00
10921;BME280;5513;50.580;8.818;2023-10-31T04:42:11;97573.59;;;11.19;100.00
10921;BME280;5513;50.580;8.818;2023-10-31T04:44:58;97562.88;;;11.21;100.00
10921;BME280;5513;50.580;8.818;2023-10-31T04:47:45;97562.03;;;11.10;100.00
10921;BME280;5513;50.580;8.818;2023-10-31T04:50:32;97561.06;;;11.02;100.00
10921;BME280;5513;50.580;8.818;2023-10-31T04:53:20;97573.88;;;11.16;100.00
10921;BME280;5513;50.580;8.818;2023-10-31T04:56:12;97571.09;;;11.08;100.00
10921;BME280;5513;50.580;8.818;2023-10-31T04:58:59;97572.75;;;11.09;100.00
10921;BME280;5513;50.580;8.818;2023-10-31T05:01:49;97570.53;;;11.04;100.00
10921;BME280;5513;50.580;8.818;2023-10-31T05:04:38;97581.44;;;11.11;100.00
10921;BME280;5513;50.580;8.818;2023-10-31T05:07:25;97579.31;;;11.05;100.00
10921;BME280;5513;50.580;8.818;2023-10-31T05:10:13;97582.41;;;11.10;100.00
10921;BME280;5513;50.580;8.818;2023-10-31T05:13:00;97580.31;;;11.13;100.00
10921;BME280;5513;50.580;8.818;2023-10-31T05:15:48;97571.91;;;11.08;100.00
10921;BME280;5513;50.580;8.818;2023-10-31T05:18:36;97563.56;;;11.13;100.00
10921;BME280;5513;50.580;8.818;2023-10-31T05:21:23;97569.56;;;11.25;100.00
10921;BME280;5513;50.580;8.818;2023-10-31T05:24:10;97560.78;;;11.14;100.00
10921;BME280;5513;50.580;8.818;2023-10-31T05:26:59;97570.09;;;11.18;100.00
10921;BME280;5513;50.580;8.818;2023-10-31T05:29:45;97570.25;;;11.17;100.00
10921;BME280;5513;50.580;8.818;2023-10-31T05:32:32;97563.28;;;11.06;100.00
10921;BME280;5513;50.580;8.818;2023-10-31T05:35:21;97555.63;;;11.13;100.00
10921;BME280;5513;50.580;8.818;2023-10-31T05:38:07;97563.72;;;11.21;100.00
10921;BME280;5513;50.580;8.818;2023-10-31T05:40:54;97561.31;;;11.18;100.00
10921;BME280;5513;50.580;8.818;2023-10-31T05:43:43;97561.88;;;11.22;100.00
10921;BME280;5513;50.580;8.818;2023-10-31T05:46:30;97569.84;;;11.22;100.00
10921;BME280;5513;50.580;8.818;2023-10-31T05:49:16;97573.59;;;11.19;100.00
10921;BME280;5513;50.580;8.818;2023-10-31T05:52:05;97567.72;;;11.25;100.00
10921;BME280;5513;50.580;8.818;2023-10-31T05:54:52;97574.31;;;11.21;100.00
10921;BME280;5513;50.580;8.818;2023-10-31T05:57:39;97580.84;;;11.27;100.00
10921;BME280;5513;50.580;8.818;2023-10-31T06:00:27;97582.41;;;11.20;100.00
10921;BME280;5513;50.580;8.818;2023-10-31T06:03:14;97580.84;;;11.27;100.00
10921;BME280;5513;50.580;8.818;2023-10-31T06:06:00;97579.16;;;11.35;100.00
10921;BME280;5513;50.580;8.818;2023-10-31T06:08:47;97591.44;;;11.27;100.00
10921;BME280;5513;50.580;8.818;2023-10-31T06:11:34;97587.25;;;11.34;100.00
10921;BME280;5513;50.580;8.818;2023-10-31T06:14:21;97586.28;;;11.25;100.00
10921;BME280;5513;50.580;8.818;2023-10-31T06:17:09;97600.22;;;11.17;100.00
10921;BME280;5513;50.580;8.818;2023-10-31T06:19:56;97597.72;;;11.26;100.00
10921;BME280;5513;50.580;8.818;2023-10-31T06:22:43;97602.19;;;11.25;100.00
10921;BME280;5513;50.580;8.818;2023-10-31T06:25:30;97607.19;;;11.28;100.00
10921;BME280;5513;50.580;8.818;2023-10-31T06:28:17;97604.97;;;11.24;100.00
10921;BME280;5513;50.580;8.818;2023-10-31T06:31:04;97614.59;;;11.25;100.00
10921;BME280;5513;50.580;8.818;2023-10-31T06:33:52;97620.44;;;11.18;100.00
10921;BME280;5513;50.580;8.818;2023-10-31T06:36:39;97617.94;;;11.27;100.00
10921;BME280;5513;50.580;8.818;2023-10-31T06:39:26;97621.44;;;11.17;100.00
10921;BME280;5513;50.580;8.818;2023-10-31T06:42:13;97625.75;;;11.09;100.00
10921;BME280;5513;50.580;8.818;2023-10-31T06:45:00;97629.38;;;11.17;100.00
10921;BME280;5513;50.580;8.818;2023-10-31T06:47:47;97638.75;;;11.31;100.00
10921;BME280;5513;50.580;8.818;2023-10-31T06:50:35;97636.22;;;11.30;100.00
10921;BME280;5513;50.580;8.818;2023-10-31T06:53:22;97646.53;;;11.33;100.00
10921;BME280;5513;50.580;8.818;2023-10-31T06:56:08;97644.03;;;11.31;100.00
10921;BME280;5513;50.580;8.818;2023-10-31T06:58:55;97648.91;;;11.36;100.00
10921;BME280;5513;50.580;8.818;2023-10-31T07:01:42;97651.84;;;11.52;100.00
10921;BME280;5513;50.580;8.818;2023-10-31T07:04:30;97645.13;;;11.48;100.00
10921;BME280;5513;50.580;8.818;2023-10-31T07:07:19;97651.84;;;11.42;100.00
10921;BME280;5513;50.580;8.818;2023-10-31T07:10:06;97656.16;;;11.43;100.00
10921;BME280;5513;50.580;8.818;2023-10-31T07:12:53;97673.06;;;11.33;100.00
10921;BME280;5513;50.580;8.818;2023-10-31T07:15:40;97679.31;;;11.22;100.00
10921;BME280;5513;50.580;8.818;2023-10-31T07:18:27;97683.50;;;11.15;100.00
10921;BME280;5513;50.580;8.818;2023-10-31T07:21:14;97692.81;;;11.09;100.00
10921;BME280;5513;50.580;8.818;2023-10-31T07:24:02;97692.81;;;11.00;100.00
10921;BME280;5513;50.580;8.818;2023-10-31T07:26:49;97696.56;;;10.97;100.00
10921;BME280;5513;50.580;8.818;2023-10-31T07:29:39;97703.81;;;10.95;100.00
10921;BME280;5513;50.580;8.818;2023-10-31T07:32:26;97713.47;;;11.06;100.00
10921;BME280;5513;50.580;8.818;2023-10-31T07:35:12;97708.31;;;11.04;100.00
10921;BME280;5513;50.580;8.818;2023-10-31T07:37:59;97720.56;;;11.05;100.00
10921;BME280;5513;50.580;8.818;2023-10-31T07:40:48;97729.91;;;11.09;100.00
10921;BME280;5513;50.580;8.818;2023-10-31T07:43:35;97732.72;;;11.08;100.00
10921;BME280;5513;50.580;8.818;2023-10-31T07:46:23;97733.00;;;11.14;100.00
10921;BME280;5513;50.580;8.818;2023-10-31T07:49:10;97743.91;;;11.21;100.00
10921;BME280;5513;50.580;8.818;2023-10-31T07:51:57;97732.19;;;11.24;100.00
10921;BME280;5513;50.580;8.818;2023-10-31T07:54:44;97741.13;;;11.23;100.00
10921;BME280;5513;50.580;8.818;2023-10-31T07:57:32;97732.19;;;11.24;100.00
10921;BME280;5513;50.580;8.818;2023-10-31T08:00:20;97746.56;;;11.21;100.00
10921;BME280;5513;50.580;8.818;2023-10-31T08:03:07;97736.94;;;11.20;100.00
10921;BME280;5513;50.580;8.818;2023-10-31T08:05:54;97747.94;;;11.25;100.00
10921;BME280;5513;50.580;8.818;2023-10-31T08:08:40;97746.28;;;11.24;100.00
10921;BME280;5513;50.580;8.818;2023-10-31T08:11:27;97750.19;;;11.30;100.00
10921;BME280;5513;50.580;8.818;2023-10-31T08:14:16;97752.00;;;11.29;100.00
10921;BME280;5513;50.580;8.818;2023-10-31T08:17:03;97755.38;;;11.41;100.00
10921;BME280;5513;50.580;8.818;2023-10-31T08:19:50;97754.25;;;11.34;100.00
10921;BME280;5513;50.580;8.818;2023-10-31T08:22:37;97757.19;;;11.40;100.00
10921;BME280;5513;50.580;8.818;2023-10-31T08:25:24;97760.09;;;11.37;100.00
10921;BME280;5513;50.580;8.818;2023-10-31T08:28:11;97765.84;;;11.52;100.00
10921;BME280;5513;50.580;8.818;2023-10-31T08:30:59;97762.19;;;11.34;100.00
10921;BME280;5513;50.580;8.818;2023-10-31T08:33:46;97768.75;;;11.30;100.00
10921;BME280;5513;50.580;8.818;2023-10-31T08:36:33;97776.81;;;11.28;100.00
10921;BME280;5513;50.580;8.818;2023-10-31T08:39:20;97783.94;;;11.28;100.00
10921;BME280;5513;50.580;8.818;2023-10-31T08:42:07;97787.69;;;11.25;100.00
10921;BME280;5513;50.580;8.818;2023-10-31T08:44:54;97785.22;;;11.33;100.00
10921;BME280;5513;50.580;8.818;2023-10-31T08:47:43;97786.06;;;11.34;100.00
10921;BME280;5513;50.580;8.818;2023-10-31T08:50:29;97784.38;;;11.33;100.00
10921;BME280;5513;50.580;8.818;2023-10-31T08:53:17;97795.53;;;11.36;100.00
10921;BME280;5513;50.580;8.818;2023-10-31T08:56:05;97797.66;;;11.42;100.00
10921;BME280;5513;50.580;8.818;2023-10-31T08:58:52;97801.66;;;11.37;100.00
10921;BME280;5513;50.580;8.818;2023-10-31T09:01:38;97800.47;;;11.51;100.00
10921;BME280;5513;50.580;8.818;2023-10-31T09:04:26;97803.66;;;11.54;100.00
10921;BME280;5513;50.580;8.818;2023-10-31T09:07:14;97809.50;;;11.58;100.00
10921;BME280;5513;50.580;8.818;2023-10-31T09:10:00;97803.38;;;11.57;100.00
10921;BME280;5513;50.580;8.818;2023-10-31T09:12:48;97807.97;;;11.55;100.00
10921;BME280;5513;50.580;8.818;2023-10-31T09:15:36;97811.91;;;11.70;100.00
10921;BME280;5513;50.580;8.818;2023-10-31T09:18:23;97813.78;;;11.80;100.00
10921;BME280;5513;50.580;8.818;2023-10-31T09:21:11;97817.50;;;13.29;100.00
10921;BME280;5513;50.580;8.818;2023-10-31T09:23:58;97813.00;;;13.92;100.00
10921;BME280;5513;50.580;8.818;2023-10-31T09:26:45;97800.13;;;13.70;100.00
10921;BME280;5513;50.580;8.818;2023-10-31T09:29:32;97797.84;;;13.02;100.00
10921;BME280;5513;50.580;8.818;2023-10-31T09:32:19;97803.56;;;13.07;100.00
10921;BME280;5513;50.580;8.818;2023-10-31T09:35:06;97808.38;;;13.31;100.00
10921;BME280;5513;50.580;8.818;2023-10-31T09:37:55;97809.69;;;12.80;100.00
10921;BME280;5513;50.580;8.818;2023-10-31T09:40:43;97814.09;;;12.52;100.00
10921;BME280;5513;50.580;8.818;2023-10-31T09:43:30;97820.16;;;12.25;100.00
10921;BME280;5513;50.580;8.818;2023-10-31T09:46:17;97825.06;;;12.20;100.00
10921;BME280;5513;50.580;8.818;2023-10-31T09:49:04;97823.91;;;12.42;100.00
10921;BME280;5513;50.580;8.818;2023-10-31T09:51:51;97830.72;;;12.64;100.00
10921;BME280;5513;50.580;8.818;2023-10-31T09:54:41;97831.34;;;12.95;100.00
10921;BME280;5513;50.580;8.818;2023-10-31T09:57:31;97823.78;;;13.28;100.00
10921;BME280;5513;50.580;8.818;2023-10-31T10:00:18;97825.63;;;13.17;100.00
10921;BME280;5513;50.580;8.818;2023-10-31T10:03:06;97832.75;;;12.89;100.00
10921;BME280;5513;50.580;8.818;2023-10-31T10:05:55;97837.56;;;12.76;100.00
10921;BME280;5513;50.580;8.818;2023-10-31T10:08:42;97831.25;;;13.14;100.00
10921;BME280;5513;50.580;8.818;2023-10-31T10:11:31;97834.72;;;13.52;100.00
10921;BME280;5513;50.580;8.818;2023-10-31T10:14:18;97841.88;;;13.52;100.00
10921;BME280;5513;50.580;8.818;2023-10-31T10:17:14;97835.31;;;13.09;100.00
10921;BME280;5513;50.580;8.818;2023-10-31T10:20:05;97842.38;;;12.90;100.00
10921;BME280;5513;50.580;8.818;2023-10-31T10:22:53;97830.13;;;12.80;100.00
10921;BME280;5513;50.580;8.818;2023-10-31T10:25:42;97842.03;;;12.76;100.00
10921;BME280;5513;50.580;8.818;2023-10-31T10:28:30;97836.97;;;12.73;100.00
10921;BME280;5513;50.580;8.818;2023-10-31T10:31:19;97832.63;;;12.81;100.00
10921;BME280;5513;50.580;8.818;2023-10-31T10:34:06;97836.56;;;13.14;100.00
10921;BME280;5513;50.580;8.818;2023-10-31T10:36:55;97830.72;;;13.84;100.00
10921;BME280;5513;50.580;8.818;2023-10-31T10:39:45;97821.97;;;15.39;100.00
10921;BME280;5513;50.580;8.818;2023-10-31T10:42:41;97820.19;;;14.79;100.00
10921;BME280;5513;50.580;8.818;2023-10-31T10:45:32;97815.44;;;13.86;100.00
10921;BME280;5513;50.580;8.818;2023-10-31T10:48:20;97821.13;;;13.55;100.00
10921;BME280;5513;50.580;8.818;2023-10-31T10:51:14;97829.75;;;13.39;100.00
10921;BME280;5513;50.580;8.818;2023-10-31T10:54:08;97826.50;;;13.08;100.00
10921;BME280;5513;50.580;8.818;2023-10-31T10:57:00;97829.75;;;13.02;100.00
10921;BME280;5513;50.580;8.818;2023-10-31T10:59:51;97828.97;;;12.82;100.00
10921;BME280;5513;50.580;8.818;2023-10-31T11:02:43;97830.66;;;12.83;100.00
10921;BME280;5513;50.580;8.818;2023-10-31T11:05:31;97828.53;;;12.97;100.00
10921;BME280;5513;50.580;8.818;2023-10-31T11:08:20;97836.97;;;13.20;100.00
10921;BME280;5513;50.580;8.818;2023-10-31T11:11:07;97832.13;;;13.42;100.00
10921;BME280;5513;50.580;8.818;2023-10-31T11:13:55;97833.97;;;14.75;100.00
10921;BME280;5513;50.580;8.818;2023-10-31T11:16:45;97837.19;;;15.46;100.00
10921;BME280;5513;50.580;8.818;2023-10-31T11:19:36;97827.59;;;15.28;100.00
10921;BME280;5513;50.580;8.818;2023-10-31T11:22:23;97836.56;;;15.18;100.00
10921;BME280;5513;50.580;8.818;2023-10-31T11:25:13;97829.28;;;15.29;100.00
10921;BME280;5513;50.580;8.818;2023-10-31T11:28:15;97839.06;;;15.54;100.00
10921;BME280;5513;50.580;8.818;2023-10-31T11:31:02;97829.13;;;15.81;100.00
10921;BME280;5513;50.580;8.818;2023-10-31T11:33:51;97831.47;;;15.76;100.00
10921;BME280;5513;50.580;8.818;2023-10-31T11:36:39;97838.00;;;15.89;100.00
10921;BME280;5513;50.580;8.818;2023-10-31T11:39:27;97830.66;;;15.91;100.00
10921;BME280;5513;50.580;8.818;2023-10-31T11:42:17;97833.66;;;15.88;100.00
10921;BME280;5513;50.580;8.818;2023-10-31T11:45:07;97844.53;;;16.19;100.00
10921;BME280;5513;50.580;8.818;2023-10-31T11:47:54;97837.38;;;16.52;100.00
10921;BME280;5513;50.580;8.818;2023-10-31T11:50:41;97835.00;;;16.49;100.00
10921;BME280;5513;50.580;8.818;2023-10-31T11:53:30;97824.31;;;17.37;100.00
10921;BME280;5513;50.580;8.818;2023-10-31T11:56:17;97837.50;;;15.86;100.00
10921;BME280;5513;50.580;8.818;2023-10-31T11:59:05;97835.31;;;15.39;100.00
10921;BME280;5513;50.580;8.818;2023-10-31T12:01:53;97833.09;;;14.92;100.00
10921;BME280;5513;50.580;8.818;2023-10-31T12:04:40;97841.78;;;15.28;100.00
10921;BME280;5513;50.580;8.818;2023-10-31T12:07:27;97840.34;;;16.90;100.00
10921;BME280;5513;50.580;8.818;2023-10-31T12:10:21;97836.59;;;18.40;100.00
10921;BME280;5513;50.580;8.818;2023-10-31T12:13:12;97834.78;;;20.02;100.00
10921;BME280;5513;50.580;8.818;2023-10-31T12:16:00;97835.78;;;21.22;82.06
10921;BME280;5513;50.580;8.818;2023-10-31T12:18:54;97829.16;;;21.18;81.08
10921;BME280;5513;50.580;8.818;2023-10-31T12:21:42;97837.84;;;19.63;91.22
10921;BME280;5513;50.580;8.818;2023-10-31T12:24:32;97848.00;;;20.62;86.98
10921;BME280;5513;50.580;8.818;2023-10-31T12:27:21;97850.59;;;21.74;78.13
10921;BME280;5513;50.580;8.818;2023-10-31T12:30:09;97853.38;;;21.18;77.44
10921;BME280;5513;50.580;8.818;2023-10-31T12:32:56;97863.03;;;19.48;84.69
10921;BME280;5513;50.580;8.818;2023-10-31T12:35:43;97866.31;;;18.07;97.91
10921;BME280;5513;50.580;8.818;2023-10-31T12:38:31;97864.13;;;17.80;100.00
10921;BME280;5513;50.580;8.818;2023-10-31T12:41:18;97868.25;;;17.90;100.00
10921;BME280;5513;50.580;8.818;2023-10-31T12:44:07;97875.44;;;16.54;100.00
10921;BME280;5513;50.580;8.818;2023-10-31T12:46:56;97875.41;;;15.97;100.00
10921;BME280;5513;50.580;8.818;2023-10-31T12:49:43;97879.72;;;15.48;100.00
10921;BME280;5513;50.580;8.818;2023-10-31T12:52:45;97872.81;;;15.03;100.00
10921;BME280;5513;50.580;8.818;2023-10-31T12:55:38;97878.88;;;14.44;100.00
10921;BME280;5513;50.580;8.818;2023-10-31T12:58:25;97887.00;;;14.42;100.00
10921;BME280;5513;50.580;8.818;2023-10-31T13:01:14;97889.97;;;14.57;100.00
10921;BME280;5513;50.580;8.818;2023-10-31T13:04:03;97890.50;;;14.78;100.00
10921;BME280;5513;50.580;8.818;2023-10-31T13:06:55;97889.13;;;14.74;100.00
10921;BME280;5513;50.580;8.818;2023-10-31T13:09:42;97897.75;;;14.68;100.00
10921;BME280;5513;50.580;8.818;2023-10-31T13:12:30;97904.84;;;14.59;100.00
10921;BME280;5513;50.580;8.818;2023-10-31T13:15:18;97902.56;;;14.47;100.00
10921;BME280;5513;50.580;8.818;2023-10-31T13:18:06;97910.34;;;14.58;100.00
10921;BME280;5513;50.580;8.818;2023-10-31T13:20:57;97904.97;;;14.40;100.00
10921;BME280;5513;50.580;8.818;2023-10-31T13:23:43;97900.09;;;14.18;100.00
10921;BME280;5513;50.580;8.818;2023-10-31T13:26:32;97909.69;;;14.11;100.00
10921;BME280;5513;50.580;8.818;2023-10-31T13:29:19;97908.41;;;14.15;100.00
10921;BME280;5513;50.580;8.818;2023-10-31T13:32:07;97910.47;;;14.56;100.00
10921;BME280;5513;50.580;8.818;2023-10-31T13:34:55;97919.16;;;15.02;100.00
10921;BME280;5513;50.580;8.818;2023-10-31T13:37:42;97919.78;;;15.56;100.00
10921;BME280;5513;50.580;8.818;2023-10-31T13:40:29;97926.03;;;16.23;100.00
10921;BME280;5513;50.580;8.818;2023-10-31T13:43:16;97920.91;;;17.11;100.00
10921;BME280;5513;50.580;8.818;2023-10-31T13:46:03;97922.06;;;21.28;97.15
10921;BME280;5513;50.580;8.818;2023-10-31T13:48:50;97908.97;;;23.68;68.06
10921;BME280;5513;50.580;8.818;2023-10-31T13:51:38;97910.94;;;24.75;57.64
10921;BME280;5513;50.580;8.818;2023-10-31T13:54:25;97912.78;;;25.75;53.58
10921;BME280;5513;50.580;8.818;2023-10-31T13:57:12;97911.25;;;28.28;44.02
10921;BME280;5513;50.580;8.818;2023-10-31T13:59:59;97910.41;;;28.84;40.82
10921;BME280;5513;50.580;8.818;2023-10-31T14:02:56;97900.28;;;27.82;42.49
10921;BME280;5513;50.580;8.818;2023-10-31T14:05:43;97900.72;;;27.91;41.89
10921;BME280;5513;50.580;8.818;2023-10-31T14:08:32;97912.25;;;26.81;42.16
10921;BME280;5513;50.580;8.818;2023-10-31T14:11:18;97910.06;;;22.94;49.74
10921;BME280;5513;50.580;8.818;2023-10-31T14:14:06;97920.91;;;22.20;56.03
10921;BME280;5513;50.580;8.818;2023-10-31T14:16:55;97917.00;;;21.88;57.53
10921;BME280;5513;50.580;8.818;2023-10-31T14:19:43;97913.38;;;23.03;53.88
10921;BME280;5513;50.580;8.818;2023-10-31T14:22:30;97909.63;;;23.37;54.20
10921;BME280;5513;50.580;8.818;2023-10-31T14:25:18;97912.63;;;23.87;50.86
10921;BME280;5513;50.580;8.818;2023-10-31T14:28:05;97918.09;;;23.54;52.17
10921;BME280;5513;50.580;8.818;2023-10-31T14:30:52;97911.22;;;22.45;54.82
10921;BME280;5513;50.580;8.818;2023-10-31T14:33:39;97913.44;;;21.74;58.43
10921;BME280;5513;50.580;8.818;2023-10-31T14:36:26;97923.53;;;20.81;64.87
10921;BME280;5513;50.580;8.818;2023-10-31T14:39:13;97929.97;;;21.08;65.67
10921;BME280;5513;50.580;8.818;2023-10-31T14:42:02;97931.06;;;22.11;61.62
10921;BME280;5513;50.580;8.818;2023-10-31T14:44:49;97935.78;;;22.70;57.73
10921;BME280;5513;50.580;8.818;2023-10-31T14:47:36;97935.13;;;23.81;51.77
10921;BME280;5513;50.580;8.818;2023-10-31T14:50:23;97938.03;;;22.60;54.15